sensor_id;sensor_type;location;lat;lon;timestamp;pressure;altitude;pressure_sealevel;temperature;humidity
62293;BME280;48292;47.724;18.992;2022-11-15T04:34:33;97591.25;;;4.98;100.0
62293;BME280;48292;47.724;18.992;2022-11-15T04:39:35;97591.25;;;4.98;100.0
62293;BME280;48292;47.724;18.992;2022-11-15T04:44:37;97594.94;;;4.84;98.85
62293;BME280;48292;47.724;18.992;2022-11-15T04:49:39;97594.94;;;4.84;98.85
62293;BME280;48292;47.724;18.992;2022-11-15T04:54:40;97573.13;;;4.89;98.45
62293;BME280;48292;47.724;18.992;2022-11-15T04:59:42;97573.13;;;4.89;98.45
62293;BME280;48292;47.724;18.992;2022-11-15T05:04:44;97598.59;;;4.8;100.0
62293;BME280;48292;47.724;18.992;2022-11-15T05:09:46;97598.59;;;4.8;100.0
62293;BME280;48292;47.724;18.992;2022-11-15T05:14:47;97605.48;;;4.77;100.0
62293;BME280;48292;47.724;18.992;2022-11-15T05:19:49;97605.48;;;4.77;100.0
62293;BME280;48292;47.724;18.992;2022-11-15T05:24:51;97597.2;;;4.7;100.0
62293;BME280;48292;47.724;18.992;2022-11-15T05:29:53;97575.58;;;4.69;100.0
62293;BME280;48292;47.724;18.992;2022-11-15T05:34:54;97575.58;;;4.69;100.0
62293;BME280;48292;47.724;18.992;2022-11-15T05:39:56;97583.5;;;4.76;100.0
62293;BME280;48292;47.724;18.992;2022-11-15T05:44:58;97583.5;;;4.76;100.0
62293;BME280;48292;47.724;18.992;2022-11-15T05:50:01;97583.0;;;4.84;100.0
62293;BME280;48292;47.724;18.992;2022-11-15T05:55:03;97583.0;;;4.84;100.0
62293;BME280;48292;47.724;18.992;2022-11-15T06:00:07;97576.39;;;4.98;100.0
62293;BME280;48292;47.724;18.992;2022-11-15T06:05:09;97576.39;;;4.98;100.0
62293;BME280;48292;47.724;18.992;2022-11-15T06:10:11;97567.02;;;5.03;100.0
62293;BME280;48292;47.724;18.992;2022-11-15T06:15:13;97567.02;;;5.03;100.0
62293;BME280;48292;47.724;18.992;2022-11-15T06:20:15;97574.98;;;5.09;100.0
62293;BME280;48292;47.724;18.992;2022-11-15T06:25:16;97574.98;;;5.09;100.0
62293;BME280;48292;47.724;18.992;2022-11-15T06:30:18;97564.64;;;5.42;100.0
62293;BME280;48292;47.724;18.992;2022-11-15T06:35:20;97564.64;;;5.42;100.0
62293;BME280;48292;47.724;18.992;2022-11-15T06:40:22;97569.95;;;5.8;100.0
62293;BME280;48292;47.724;18.992;2022-11-15T06:45:23;97579.52;;;5.76;100.0
62293;BME280;48292;47.724;18.992;2022-11-15T06:50:25;97579.52;;;5.76;100.0
62293;BME280;48292;47.724;18.992;2022-11-15T06:55:27;97569.88;;;5.82;100.0
62293;BME280;48292;47.724;18.992;2022-11-15T07:00:29;97569.88;;;5.82;100.0
62293;BME280;48292;47.724;18.992;2022-11-15T07:05:33;97570.78;;;5.91;100.0
62293;BME280;48292;47.724;18.992;2022-11-15T07:10:34;97570.78;;;5.91;100.0
62293;BME280;48292;47.724;18.992;2022-11-15T07:15:37;97568.59;;;6.02;100.0
62293;BME280;48292;47.724;18.992;2022-11-15T07:20:38;97568.59;;;6.02;100.0
62293;BME280;48292;47.724;18.992;2022-11-15T07:25:40;97570.23;;;6.18;100.0
62293;BME280;48292;47.724;18.992;2022-11-15T07:30:44;97570.23;;;6.18;100.0
62293;BME280;48292;47.724;18.992;2022-11-15T07:35:47;97560.31;;;6.3;100.0
62293;BME280;48292;47.724;18.992;2022-11-15T07:40:55;97560.31;;;6.3;100.0
62293;BME280;48292;47.724;18.992;2022-11-15T07:45:57;97550.51;;;6.43;100.0
62293;BME280;48292;47.724;18.992;2022-11-15T07:51:01;97550.51;;;6.43;100.0
62293;BME280;48292;47.724;18.992;2022-11-15T07:56:05;97562.75;;;6.29;100.0
62293;BME280;48292;47.724;18.992;2022-11-15T08:01:08;97542.84;;;6.21;100.0
62293;BME280;48292;47.724;18.992;2022-11-15T08:06:12;97542.84;;;6.21;100.0
62293;BME280;48292;47.724;18.992;2022-11-15T08:11:14;97534.17;;;6.39;100.0
62293;BME280;48292;47.724;18.992;2022-11-15T08:16:15;97534.17;;;6.39;100.0
62293;BME280;48292;47.724;18.992;2022-11-15T08:21:18;97534.23;;;6.38;100.0
62293;BME280;48292;47.724;18.992;2022-11-15T08:26:20;97534.23;;;6.38;100.0
62293;BME280;48292;47.724;18.992;2022-11-15T08:31:22;97527.3;;;6.44;100.0
62293;BME280;48292;47.724;18.992;2022-11-15T08:36:23;97527.3;;;6.44;100.0
62293;BME280;48292;47.724;18.992;2022-11-15T08:41:27;97525.2;;;6.52;100.0
62293;BME280;48292;47.724;18.992;2022-11-15T08:46:30;97525.2;;;6.52;100.0
62293;BME280;48292;47.724;18.992;2022-11-15T08:51:31;97507.88;;;6.72;100.0
62293;BME280;48292;47.724;18.992;2022-11-15T08:56:33;97507.88;;;6.72;100.0
62293;BME280;48292;47.724;18.992;2022-11-15T09:01:35;97503.34;;;6.86;100.0
62293;BME280;48292;47.724;18.992;2022-11-15T09:06:37;97503.34;;;6.86;100.0
62293;BME280;48292;47.724;18.992;2022-11-15T09:11:42;97495.4;;;7.28;100.0
62293;BME280;48292;47.724;18.992;2022-11-15T09:16:44;97475.35;;;7.33;100.0
62293;BME280;48292;47.724;18.992;2022-11-15T09:21:46;97475.35;;;7.33;100.0
62293;BME280;48292;47.724;18.992;2022-11-15T09:26:49;97481.16;;;7.34;100.0
62293;BME280;48292;47.724;18.992;2022-11-15T09:31:51;97481.16;;;7.34;100.0
62293;BME280;48292;47.724;18.992;2022-11-15T09:36:53;97476.16;;;7.19;100.0
62293;BME280;48292;47.724;18.992;2022-11-15T09:41:58;97476.16;;;7.19;100.0
62293;BME280;48292;47.724;18.992;2022-11-15T09:47:03;97462.45;;;7.1;100.0
62293;BME280;48292;47.724;18.992;2022-11-15T09:52:07;97462.45;;;7.1;100.0
62293;BME280;48292;47.724;18.992;2022-11-15T09:57:11;97442.36;;;7.03;100.0
62293;BME280;48292;47.724;18.992;2022-11-15T10:02:21;97442.36;;;7.03;100.0
62293;BME280;48292;47.724;18.992;2022-11-15T10:07:25;97434.73;;;7.13;100.0
62293;BME280;48292;47.724;18.992;2022-11-15T10:12:29;97434.73;;;7.13;100.0
62293;BME280;48292;47.724;18.992;2022-11-15T10:17:38;97433.44;;;7.25;100.0
62293;BME280;48292;47.724;18.992;2022-11-15T10:22:44;97429.42;;;6.98;100.0
62293;BME280;48292;47.724;18.992;2022-11-15T10:27:53;97429.42;;;6.98;100.0
62293;BME280;48292;47.724;18.992;2022-11-15T10:32:53;97398.29;;;6.83;100.0
62293;BME280;48292;47.724;18.992;2022-11-15T10:43:05;97380.64;;;7.13;100.0
62293;BME280;48292;47.724;18.992;2022-11-15T10:53:20;97365.69;;;7.58;100.0
62293;BME280;48292;47.724;18.992;2022-11-15T10:58:27;97365.69;;;7.58;100.0
62293;BME280;48292;47.724;18.992;2022-11-15T11:03:35;97359.33;;;7.57;100.0
62293;BME280;48292;47.724;18.992;2022-11-15T11:08:37;97359.33;;;7.57;100.0
62293;BME280;48292;47.724;18.992;2022-11-15T11:13:39;97345.16;;;7.43;100.0
62293;BME280;48292;47.724;18.992;2022-11-15T11:18:42;97345.16;;;7.43;100.0
62293;BME280;48292;47.724;18.992;2022-11-15T11:23:48;97338.74;;;7.46;100.0
62293;BME280;48292;47.724;18.992;2022-11-15T11:28:54;97330.44;;;7.39;100.0
62293;BME280;48292;47.724;18.992;2022-11-15T11:34:01;97330.44;;;7.39;100.0
62293;BME280;48292;47.724;18.992;2022-11-15T11:39:14;97329.95;;;7.33;100.0
62293;BME280;48292;47.724;18.992;2022-11-15T11:44:18;97329.95;;;7.33;100.0
62293;BME280;48292;47.724;18.992;2022-11-15T11:49:25;97312.3;;;7.13;100.0
62293;BME280;48292;47.724;18.992;2022-11-15T11:54:31;97312.3;;;7.13;100.0
62293;BME280;48292;47.724;18.992;2022-11-15T11:59:36;97298.94;;;7.19;100.0
62293;BME280;48292;47.724;18.992;2022-11-15T12:04:40;97298.94;;;7.19;100.0
62293;BME280;48292;47.724;18.992;2022-11-15T12:09:43;97291.48;;;7.25;100.0
62293;BME280;48292;47.724;18.992;2022-11-15T12:14:46;97291.48;;;7.25;100.0
62293;BME280;48292;47.724;18.992;2022-11-15T12:19:49;97275.1;;;7.16;100.0
62293;BME280;48292;47.724;18.992;2022-11-15T12:24:54;97275.1;;;7.16;100.0
62293;BME280;48292;47.724;18.992;2022-11-15T12:29:58;97259.14;;;7.07;100.0
62293;BME280;48292;47.724;18.992;2022-11-15T12:35:03;97263.91;;;7.17;100.0
62293;BME280;48292;47.724;18.992;2022-11-15T12:40:17;97263.91;;;7.17;100.0
62293;BME280;48292;47.724;18.992;2022-11-15T12:45:24;97250.93;;;7.24;100.0
62293;BME280;48292;47.724;18.992;2022-11-15T12:55:37;97233.21;;;7.25;100.0
62293;BME280;48292;47.724;18.992;2022-11-15T13:00:39;97233.21;;;7.25;100.0
62293;BME280;48292;47.724;18.992;2022-11-15T13:10:51;97228.09;;;7.24;100.0
62293;BME280;48292;47.724;18.992;2022-11-15T13:15:54;97220.02;;;7.36;100.0
62293;BME280;48292;47.724;18.992;2022-11-15T13:20:56;97220.02;;;7.36;100.0
62293;BME280;48292;47.724;18.992;2022-11-15T13:26:08;97207.06;;;6.73;100.0
62293;BME280;48292;47.724;18.992;2022-11-15T13:31:18;97207.63;;;6.49;100.0
62293;BME280;48292;47.724;18.992;2022-11-15T13:36:21;97207.63;;;6.49;100.0
62293;BME280;48292;47.724;18.992;2022-11-15T13:41:24;97207.91;;;6.43;100.0
62293;BME280;48292;47.724;18.992;2022-11-15T13:46:27;97207.91;;;6.43;100.0
62293;BME280;48292;47.724;18.992;2022-11-15T13:51:32;97196.66;;;6.39;100.0
62293;BME280;48292;47.724;18.992;2022-11-15T13:56:35;97196.66;;;6.39;100.0
62293;BME280;48292;47.724;18.992;2022-11-15T14:01:40;97187.09;;;6.53;100.0
62293;BME280;48292;47.724;18.992;2022-11-15T14:06:44;97187.09;;;6.53;100.0
62293;BME280;48292;47.724;18.992;2022-11-15T14:11:49;97178.02;;;6.56;100.0
62293;BME280;48292;47.724;18.992;2022-11-15T14:16:51;97178.02;;;6.56;100.0
62293;BME280;48292;47.724;18.992;2022-11-15T14:32:12;97165.19;;;6.2;100.0
62293;BME280;48292;47.724;18.992;2022-11-15T14:37:18;97159.31;;;6.12;100.0
62293;BME280;48292;47.724;18.992;2022-11-15T14:42:21;97159.31;;;6.12;100.0
62293;BME280;48292;47.724;18.992;2022-11-15T14:47:23;97136.23;;;6.16;100.0
62293;BME280;48292;47.724;18.992;2022-11-15T14:52:26;97136.23;;;6.16;100.0
62293;BME280;48292;47.724;18.992;2022-11-15T14:57:31;97134.99;;;6.05;100.0
62293;BME280;48292;47.724;18.992;2022-11-15T15:02:33;97134.99;;;6.05;100.0
62293;BME280;48292;47.724;18.992;2022-11-15T15:07:35;97128.33;;;5.91;100.0
62293;BME280;48292;47.724;18.992;2022-11-15T15:12:38;97128.33;;;5.91;100.0
62293;BME280;48292;47.724;18.992;2022-11-15T15:17:40;97116.3;;;5.79;100.0
62293;BME280;48292;47.724;18.992;2022-11-15T15:22:41;97116.3;;;5.79;100.0
62293;BME280;48292;47.724;18.992;2022-11-15T15:27:43;97122.58;;;5.76;100.0
62293;BME280;48292;47.724;18.992;2022-11-15T15:32:45;97122.58;;;5.76;100.0
62293;BME280;48292;47.724;18.992;2022-11-15T15:37:47;97114.06;;;5.79;100.0
62293;BME280;48292;47.724;18.992;2022-11-15T15:42:50;97114.06;;;5.79;100.0
62293;BME280;48292;47.724;18.992;2022-11-15T15:47:51;97117.68;;;5.77;100.0
62293;BME280;48292;47.724;18.992;2022-11-15T15:52:54;97098.28;;;5.79;100.0
62293;BME280;48292;47.724;18.992;2022-11-15T15:57:56;97098.28;;;5.79;100.0
62293;BME280;48292;47.724;18.992;2022-11-15T16:02:58;97098.34;;;5.68;100.0
62293;BME280;48292;47.724;18.992;2022-11-15T16:08:00;97098.34;;;5.68;100.0
62293;BME280;48292;47.724;18.992;2022-11-15T16:13:02;97106.51;;;5.74;100.0
62293;BME280;48292;47.724;18.992;2022-11-15T16:18:04;97106.51;;;5.74;100.0
62293;BME280;48292;47.724;18.992;2022-11-15T16:23:07;97094.51;;;5.64;100.0
62293;BME280;48292;47.724;18.992;2022-11-15T16:28:14;97094.51;;;5.64;100.0
62293;BME280;48292;47.724;18.992;2022-11-15T16:33:17;97097.17;;;5.64;100.0
62293;BME280;48292;47.724;18.992;2022-11-15T16:38:20;97097.17;;;5.64;100.0
62293;BME280;48292;47.724;18.992;2022-11-15T16:43:22;97091.58;;;5.57;100.0
62293;BME280;48292;47.724;18.992;2022-11-15T16:48:24;97091.58;;;5.57;100.0
62293;BME280;48292;47.724;18.992;2022-11-15T16:53:27;97088.8;;;5.45;100.0
62293;BME280;48292;47.724;18.992;2022-11-15T16:58:29;97088.8;;;5.45;100.0
62293;BME280;48292;47.724;18.992;2022-11-15T17:03:33;97082.13;;;5.46;100.0
62293;BME280;48292;47.724;18.992;2022-11-15T17:08:37;97079.61;;;5.38;100.0
62293;BME280;48292;47.724;18.992;2022-11-15T17:13:39;97079.61;;;5.38;100.0
62293;BME280;48292;47.724;18.992;2022-11-15T17:18:42;97071.4;;;5.44;100.0
62293;BME280;48292;47.724;18.992;2022-11-15T17:23:44;97071.4;;;5.44;100.0
62293;BME280;48292;47.724;18.992;2022-11-15T17:28:48;97062.77;;;5.42;100.0
62293;BME280;48292;47.724;18.992;2022-11-15T17:33:51;97062.77;;;5.42;100.0
62293;BME280;48292;47.724;18.992;2022-11-15T17:38:53;97054.2;;;5.3;100.0
62293;BME280;48292;47.724;18.992;2022-11-15T17:43:59;97054.2;;;5.3;100.0
62293;BME280;48292;47.724;18.992;2022-11-15T17:49:02;97045.59;;;5.14;100.0
62293;BME280;48292;47.724;18.992;2022-11-15T17:54:05;97045.59;;;5.14;100.0
62293;BME280;48292;47.724;18.992;2022-11-15T17:59:08;97036.55;;;5.19;100.0
62293;BME280;48292;47.724;18.992;2022-11-15T18:04:14;97036.55;;;5.19;100.0
62293;BME280;48292;47.724;18.992;2022-11-15T18:09:17;97028.34;;;5.16;100.0
62293;BME280;48292;47.724;18.992;2022-11-15T18:14:19;97015.99;;;5.2;100.0
62293;BME280;48292;47.724;18.992;2022-11-15T18:19:21;97015.99;;;5.2;100.0
62293;BME280;48292;47.724;18.992;2022-11-15T18:24:24;97004.63;;;5.11;100.0
62293;BME280;48292;47.724;18.992;2022-11-15T18:29:28;97004.63;;;5.11;100.0
62293;BME280;48292;47.724;18.992;2022-11-15T18:34:31;97006.94;;;5.15;100.0
62293;BME280;48292;47.724;18.992;2022-11-15T18:39:33;97006.94;;;5.15;100.0
62293;BME280;48292;47.724;18.992;2022-11-15T18:44:37;96994.73;;;5.12;100.0
62293;BME280;48292;47.724;18.992;2022-11-15T18:49:39;96994.73;;;5.12;100.0
62293;BME280;48292;47.724;18.992;2022-11-15T18:54:42;96988.03;;;5.16;100.0
62293;BME280;48292;47.724;18.992;2022-11-15T18:59:44;96988.03;;;5.16;100.0
62293;BME280;48292;47.724;18.992;2022-11-15T19:04:47;96991.1;;;5.16;100.0
62293;BME280;48292;47.724;18.992;2022-11-15T19:09:49;96991.1;;;5.16;100.0
62293;BME280;48292;47.724;18.992;2022-11-15T19:14:51;96979.72;;;5.07;100.0
62293;BME280;48292;47.724;18.992;2022-11-15T19:19:56;96979.72;;;5.07;100.0
62293;BME280;48292;47.724;18.992;2022-11-15T19:24:58;96971.97;;;5.09;100.0
62293;BME280;48292;47.724;18.992;2022-11-15T19:30:03;96954.31;;;5.13;100.0
62293;BME280;48292;47.724;18.992;2022-11-15T19:35:06;96954.31;;;5.13;100.0
62293;BME280;48292;47.724;18.992;2022-11-15T19:40:09;96949.95;;;5.14;100.0
62293;BME280;48292;47.724;18.992;2022-11-15T19:45:11;96949.95;;;5.14;100.0
62293;BME280;48292;47.724;18.992;2022-11-15T19:50:15;96944.11;;;5.16;100.0
62293;BME280;48292;47.724;18.992;2022-11-15T19:55:18;96944.11;;;5.16;100.0
62293;BME280;48292;47.724;18.992;2022-11-15T20:00:20;96938.94;;;5.13;100.0
62293;BME280;48292;47.724;18.992;2022-11-15T20:05:23;96938.94;;;5.13;100.0
62293;BME280;48292;47.724;18.992;2022-11-15T20:10:25;96938.28;;;5.13;100.0
62293;BME280;48292;47.724;18.992;2022-11-15T20:15:28;96938.28;;;5.13;100.0
62293;BME280;48292;47.724;18.992;2022-11-15T20:20:30;96924.02;;;5.16;100.0
62293;BME280;48292;47.724;18.992;2022-11-15T20:25:33;96924.02;;;5.16;100.0
62293;BME280;48292;47.724;18.992;2022-11-15T20:30:35;96917.08;;;5.13;100.0
62293;BME280;48292;47.724;18.992;2022-11-15T20:35:38;96917.08;;;5.13;100.0
62293;BME280;48292;47.724;18.992;2022-11-15T20:40:43;96906.23;;;5.16;100.0
62293;BME280;48292;47.724;18.992;2022-11-15T20:45:46;96877.79;;;5.12;100.0
62293;BME280;48292;47.724;18.992;2022-11-15T20:50:49;96877.79;;;5.12;100.0
62293;BME280;48292;47.724;18.992;2022-11-15T20:55:52;96876.72;;;5.28;100.0
62293;BME280;48292;47.724;18.992;2022-11-15T21:00:55;96876.72;;;5.28;100.0
62293;BME280;48292;47.724;18.992;2022-11-15T21:05:58;96869.94;;;5.24;100.0
62293;BME280;48292;47.724;18.992;2022-11-15T21:11:00;96869.94;;;5.24;100.0
62293;BME280;48292;47.724;18.992;2022-11-15T21:16:03;96875.25;;;5.24;100.0
62293;BME280;48292;47.724;18.992;2022-11-15T21:21:05;96875.25;;;5.24;100.0
62293;BME280;48292;47.724;18.992;2022-11-15T21:26:07;96862.09;;;5.21;100.0
62293;BME280;48292;47.724;18.992;2022-11-15T21:31:09;96862.09;;;5.21;100.0
62293;BME280;48292;47.724;18.992;2022-11-15T21:36:11;96851.49;;;5.25;100.0
62293;BME280;48292;47.724;18.992;2022-11-15T21:41:15;96851.49;;;5.25;100.0
62293;BME280;48292;47.724;18.992;2022-11-15T21:46:17;96845.64;;;5.27;100.0
62293;BME280;48292;47.724;18.992;2022-11-15T21:51:19;96845.64;;;5.27;100.0
62293;BME280;48292;47.724;18.992;2022-11-15T21:56:21;96845.64;;;5.27;100.0
62293;BME280;48292;47.724;18.992;2022-11-15T22:01:23;96845.64;;;5.27;100.0
62293;BME280;48292;47.724;18.992;2022-11-15T22:06:25;96845.64;;;5.27;100.0
62293;BME280;48292;47.724;18.992;2022-11-15T22:11:27;96845.64;;;5.27;100.0
62293;BME280;48292;47.724;18.992;2022-11-15T22:16:30;96845.64;;;5.27;100.0
62293;BME280;48292;47.724;18.992;2022-11-15T22:21:31;96845.64;;;5.27;100.0
62293;BME280;48292;47.724;18.992;2022-11-15T22:26:33;96845.64;;;5.27;100.0
62293;BME280;48292;47.724;18.992;2022-11-15T22:31:35;96845.64;;;5.27;100.0
62293;BME280;48292;47.724;18.992;2022-11-15T22:36:37;96845.64;;;5.27;100.0
62293;BME280;48292;47.724;18.992;2022-11-15T22:41:43;96845.64;;;5.27;100.0
